sensor_id;sensor_type;location;lat;lon;timestamp;pressure;altitude;pressure_sealevel;temperature;humidity
33286;BME280;19656;50.096;20.014;2023-07-29T00:02:06;98398.09;;;20.48;68.84
33286;BME280;19656;50.096;20.014;2023-07-29T00:07:09;98399.33;;;20.41;69.46
33286;BME280;19656;50.096;20.014;2023-07-29T00:12:12;98399.93;;;20.40;69.76
33286;BME280;19656;50.096;20.014;2023-07-29T00:17:16;98406.43;;;20.38;69.72
33286;BME280;19656;50.096;20.014;2023-07-29T00:22:19;98404.79;;;20.35;69.79
33286;BME280;19656;50.096;20.014;2023-07-29T00:27:22;98401.34;;;20.32;69.96
33286;BME280;19656;50.096;20.014;2023-07-29T00:32:28;98394.84;;;20.26;70.00
33286;BME280;19656;50.096;20.014;2023-07-29T00:37:32;98385.77;;;20.20;70.30
33286;BME280;19656;50.096;20.014;2023-07-29T00:42:35;98388.95;;;20.16;70.51
33286;BME280;19656;50.096;20.014;2023-07-29T00:47:38;98392.13;;;20.17;70.55
33286;BME280;19656;50.096;20.014;2023-07-29T00:52:42;98394.76;;;20.19;70.37
33286;BME280;19656;50.096;20.014;2023-07-29T01:02:08;98396.88;;;20.16;70.36
33286;BME280;19656;50.096;20.014;2023-07-29T01:07:19;98394.65;;;20.05;70.72
33286;BME280;19656;50.096;20.014;2023-07-29T01:17:43;98400.30;;;19.93;71.13
33286;BME280;19656;50.096;20.014;2023-07-29T01:22:49;98397.60;;;19.92;71.25
33286;BME280;19656;50.096;20.014;2023-07-29T01:27:52;98398.85;;;19.87;71.37
33286;BME280;19656;50.096;20.014;2023-07-29T01:33:03;98396.77;;;19.85;71.55
33286;BME280;19656;50.096;20.014;2023-07-29T01:38:14;98397.67;;;19.83;71.74
33286;BME280;19656;50.096;20.014;2023-07-29T01:43:20;98405.17;;;19.79;72.14
33286;BME280;19656;50.096;20.014;2023-07-29T01:48:28;98401.77;;;19.77;72.19
33286;BME280;19656;50.096;20.014;2023-07-29T01:53:33;98403.75;;;19.77;72.33
33286;BME280;19656;50.096;20.014;2023-07-29T01:58:36;98405.23;;;19.76;72.40
33286;BME280;19656;50.096;20.014;2023-07-29T02:03:39;98402.27;;;19.69;72.72
33286;BME280;19656;50.096;20.014;2023-07-29T02:08:43;98402.53;;;19.63;72.94
33286;BME280;19656;50.096;20.014;2023-07-29T02:13:46;98399.23;;;19.59;73.02
33286;BME280;19656;50.096;20.014;2023-07-29T02:18:50;98401.42;;;19.57;73.31
33286;BME280;19656;50.096;20.014;2023-07-29T02:23:58;98405.38;;;19.61;73.39
33286;BME280;19656;50.096;20.014;2023-07-29T02:29:01;98412.87;;;19.74;73.27
33286;BME280;19656;50.096;20.014;2023-07-29T02:34:04;98406.75;;;19.80;73.41
33286;BME280;19656;50.096;20.014;2023-07-29T02:39:07;98403.52;;;19.79;73.02
33286;BME280;19656;50.096;20.014;2023-07-29T02:44:18;98403.45;;;19.71;72.92
33286;BME280;19656;50.096;20.014;2023-07-29T02:49:22;98409.77;;;19.65;73.08
33286;BME280;19656;50.096;20.014;2023-07-29T02:54:26;98416.37;;;19.65;73.23
33286;BME280;19656;50.096;20.014;2023-07-29T03:02:08;98416.71;;;19.70;73.47
33286;BME280;19656;50.096;20.014;2023-07-29T03:07:12;98416.00;;;19.65;73.37
33286;BME280;19656;50.096;20.014;2023-07-29T03:12:15;98420.09;;;19.64;73.59
33286;BME280;19656;50.096;20.014;2023-07-29T03:17:18;98425.31;;;19.62;73.62
33286;BME280;19656;50.096;20.014;2023-07-29T03:22:21;98428.18;;;19.60;73.84
33286;BME280;19656;50.096;20.014;2023-07-29T03:27:24;98434.08;;;19.66;73.83
33286;BME280;19656;50.096;20.014;2023-07-29T03:32:28;98437.63;;;19.75;73.69
33286;BME280;19656;50.096;20.014;2023-07-29T03:37:31;98439.66;;;19.78;73.38
33286;BME280;19656;50.096;20.014;2023-07-29T03:42:35;98439.46;;;19.78;73.51
33286;BME280;19656;50.096;20.014;2023-07-29T03:47:50;98435.10;;;19.80;73.34
33286;BME280;19656;50.096;20.014;2023-07-29T03:52:53;98435.27;;;19.80;73.37
33286;BME280;19656;50.096;20.014;2023-07-29T03:57:57;98433.35;;;19.82;73.25
33286;BME280;19656;50.096;20.014;2023-07-29T04:03:00;98442.88;;;19.90;73.21
33286;BME280;19656;50.096;20.014;2023-07-29T04:08:04;98449.38;;;19.88;73.05
33286;BME280;19656;50.096;20.014;2023-07-29T04:13:07;98455.08;;;19.83;73.06
33286;BME280;19656;50.096;20.014;2023-07-29T04:18:12;98459.27;;;19.81;73.16
33286;BME280;19656;50.096;20.014;2023-07-29T04:23:15;98460.56;;;19.84;73.42
33286;BME280;19656;50.096;20.014;2023-07-29T04:28:19;98462.98;;;19.92;73.29
33286;BME280;19656;50.096;20.014;2023-07-29T04:33:22;98456.21;;;19.97;73.01
33286;BME280;19656;50.096;20.014;2023-07-29T04:38:31;98454.27;;;20.03;72.99
33286;BME280;19656;50.096;20.014;2023-07-29T04:43:37;98463.50;;;20.08;73.02
33286;BME280;19656;50.096;20.014;2023-07-29T07:05:28;98501.52;;;22.35;66.69
33286;BME280;19656;50.096;20.014;2023-07-29T07:10:31;98498.08;;;22.42;66.39
33286;BME280;19656;50.096;20.014;2023-07-29T07:15:36;98491.40;;;22.51;66.02
33286;BME280;19656;50.096;20.014;2023-07-29T07:20:39;98491.98;;;22.67;66.10
33286;BME280;19656;50.096;20.014;2023-07-29T07:25:43;98485.92;;;22.83;65.37
33286;BME280;19656;50.096;20.014;2023-07-29T07:30:46;98489.29;;;22.99;65.09
33286;BME280;19656;50.096;20.014;2023-07-29T07:35:49;98491.45;;;23.13;64.26
33286;BME280;19656;50.096;20.014;2023-07-29T07:40:56;98489.60;;;23.23;63.82
33286;BME280;19656;50.096;20.014;2023-07-29T07:46:01;98487.83;;;23.34;63.74
33286;BME280;19656;50.096;20.014;2023-07-29T07:51:11;98488.88;;;23.46;63.19
33286;BME280;19656;50.096;20.014;2023-07-29T07:56:15;98491.48;;;23.57;63.02
33286;BME280;19656;50.096;20.014;2023-07-29T08:01:19;98479.05;;;23.70;62.00
33286;BME280;19656;50.096;20.014;2023-07-29T08:06:22;98477.89;;;23.80;61.48
33286;BME280;19656;50.096;20.014;2023-07-29T08:11:26;98473.89;;;23.91;61.09
33286;BME280;19656;50.096;20.014;2023-07-29T08:16:29;98470.42;;;24.01;60.72
33286;BME280;19656;50.096;20.014;2023-07-29T08:21:32;98470.91;;;24.10;60.54
33286;BME280;19656;50.096;20.014;2023-07-29T08:26:35;98468.45;;;24.19;59.72
33286;BME280;19656;50.096;20.014;2023-07-29T08:31:39;98465.84;;;24.21;59.98
33286;BME280;19656;50.096;20.014;2023-07-29T08:36:42;98469.25;;;24.29;59.89
33286;BME280;19656;50.096;20.014;2023-07-29T08:41:56;98462.51;;;24.38;59.73
33286;BME280;19656;50.096;20.014;2023-07-29T08:47:01;98455.67;;;24.52;59.28
33286;BME280;19656;50.096;20.014;2023-07-29T08:52:05;98450.95;;;24.52;58.17
33286;BME280;19656;50.096;20.014;2023-07-29T08:57:10;98446.23;;;24.58;57.70
33286;BME280;19656;50.096;20.014;2023-07-29T09:02:13;98445.19;;;24.62;57.78
33286;BME280;19656;50.096;20.014;2023-07-29T09:07:16;98445.48;;;24.60;56.58
33286;BME280;19656;50.096;20.014;2023-07-29T09:12:20;98441.48;;;24.58;55.86
33286;BME280;19656;50.096;20.014;2023-07-29T09:17:24;98439.67;;;24.68;55.39
33286;BME280;19656;50.096;20.014;2023-07-29T09:22:27;98433.72;;;24.74;54.64
33286;BME280;19656;50.096;20.014;2023-07-29T09:27:30;98426.32;;;25.00;54.65
33286;BME280;19656;50.096;20.014;2023-07-29T09:32:39;98420.16;;;25.33;54.49
33286;BME280;19656;50.096;20.014;2023-07-29T09:37:43;98415.98;;;25.47;52.77
33286;BME280;19656;50.096;20.014;2023-07-29T09:42:53;98410.33;;;25.52;52.66
33286;BME280;19656;50.096;20.014;2023-07-29T09:47:57;98412.83;;;25.63;53.04
33286;BME280;19656;50.096;20.014;2023-07-29T09:53:01;98415.04;;;25.78;52.98
33286;BME280;19656;50.096;20.014;2023-07-29T10:02:15;98412.85;;;25.97;52.92
33286;BME280;19656;50.096;20.014;2023-07-29T10:07:20;98406.64;;;26.09;52.76
33286;BME280;19656;50.096;20.014;2023-07-29T10:12:27;98401.60;;;26.26;53.48
33286;BME280;19656;50.096;20.014;2023-07-29T10:17:35;98397.10;;;26.50;52.62
33286;BME280;19656;50.096;20.014;2023-07-29T10:22:43;98398.69;;;26.45;52.50
33286;BME280;19656;50.096;20.014;2023-07-29T10:27:53;98401.29;;;26.28;52.69
33286;BME280;19656;50.096;20.014;2023-07-29T10:32:58;98401.98;;;26.15;51.74
33286;BME280;19656;50.096;20.014;2023-07-29T10:38:05;98408.20;;;26.06;50.54
33286;BME280;19656;50.096;20.014;2023-07-29T10:43:10;98405.80;;;25.99;50.94
33286;BME280;19656;50.096;20.014;2023-07-29T10:53:38;98413.19;;;25.92;50.75
33286;BME280;19656;50.096;20.014;2023-07-29T10:58:43;98410.62;;;25.85;50.82
33286;BME280;19656;50.096;20.014;2023-07-29T11:04:19;98404.71;;;25.76;50.71
33286;BME280;19656;50.096;20.014;2023-07-29T11:09:40;98399.20;;;25.69;51.28
33286;BME280;19656;50.096;20.014;2023-07-29T11:14:44;98394.71;;;25.64;51.96
33286;BME280;19656;50.096;20.014;2023-07-29T11:19:48;98389.89;;;25.62;52.76
33286;BME280;19656;50.096;20.014;2023-07-29T11:24:53;98387.73;;;25.71;53.45
33286;BME280;19656;50.096;20.014;2023-07-29T11:29:59;98383.21;;;26.18;53.29
33286;BME280;19656;50.096;20.014;2023-07-29T11:35:04;98373.39;;;26.58;53.15
33286;BME280;19656;50.096;20.014;2023-07-29T11:40:08;98369.29;;;26.51;52.71
33286;BME280;19656;50.096;20.014;2023-07-29T11:45:14;98370.56;;;26.37;51.32
33286;BME280;19656;50.096;20.014;2023-07-29T11:50:20;98368.30;;;26.25;51.16
33286;BME280;19656;50.096;20.014;2023-07-29T11:55:24;98371.34;;;26.22;51.80
33286;BME280;19656;50.096;20.014;2023-07-29T12:00:27;98383.19;;;26.13;52.19
33286;BME280;19656;50.096;20.014;2023-07-29T12:05:30;98387.55;;;26.01;53.16
33286;BME280;19656;50.096;20.014;2023-07-29T12:10:34;98396.82;;;25.88;53.90
33286;BME280;19656;50.096;20.014;2023-07-29T12:15:38;98392.27;;;25.80;54.15
33286;BME280;19656;50.096;20.014;2023-07-29T12:20:43;98393.59;;;25.74;54.61
33286;BME280;19656;50.096;20.014;2023-07-29T12:25:46;98393.13;;;25.60;54.93
33286;BME280;19656;50.096;20.014;2023-07-29T12:30:57;98396.44;;;25.45;54.57
33286;BME280;19656;50.096;20.014;2023-07-29T12:36:08;98401.69;;;25.27;54.02
33286;BME280;19656;50.096;20.014;2023-07-29T12:41:11;98393.14;;;25.11;53.58
33286;BME280;19656;50.096;20.014;2023-07-29T12:46:15;98385.17;;;25.01;53.29
33286;BME280;19656;50.096;20.014;2023-07-29T12:51:19;98384.57;;;24.96;52.59
33286;BME280;19656;50.096;20.014;2023-07-29T12:56:23;98380.33;;;24.94;52.71
33286;BME280;19656;50.096;20.014;2023-07-29T13:01:27;98375.14;;;24.95;53.62
33286;BME280;19656;50.096;20.014;2023-07-29T13:06:30;98369.74;;;24.97;54.64
33286;BME280;19656;50.096;20.014;2023-07-29T13:11:35;98368.25;;;25.00;55.37
33286;BME280;19656;50.096;20.014;2023-07-29T13:16:38;98370.39;;;25.02;56.50
33286;BME280;19656;50.096;20.014;2023-07-29T13:21:42;98363.36;;;25.04;57.05
33286;BME280;19656;50.096;20.014;2023-07-29T13:26:52;98358.73;;;25.09;57.05
33286;BME280;19656;50.096;20.014;2023-07-29T13:32:26;98345.43;;;25.23;57.88
33286;BME280;19656;50.096;20.014;2023-07-29T13:37:29;98333.87;;;25.32;57.35
33286;BME280;19656;50.096;20.014;2023-07-29T13:42:32;98330.67;;;25.40;57.65
33286;BME280;19656;50.096;20.014;2023-07-29T13:47:49;98330.92;;;25.70;56.97
33286;BME280;19656;50.096;20.014;2023-07-29T13:52:54;98329.54;;;25.85;56.14
33286;BME280;19656;50.096;20.014;2023-07-29T13:58:04;98331.68;;;25.86;55.09
33286;BME280;19656;50.096;20.014;2023-07-29T14:03:16;98336.42;;;25.82;55.53
33286;BME280;19656;50.096;20.014;2023-07-29T14:08:27;98337.61;;;25.77;56.17
33286;BME280;19656;50.096;20.014;2023-07-29T14:13:30;98326.24;;;25.75;56.36
33286;BME280;19656;50.096;20.014;2023-07-29T14:18:33;98325.19;;;25.66;56.01
33286;BME280;19656;50.096;20.014;2023-07-29T14:23:37;98321.47;;;25.62;56.09
33286;BME280;19656;50.096;20.014;2023-07-29T14:28:44;98313.36;;;25.64;55.75
33286;BME280;19656;50.096;20.014;2023-07-29T14:33:48;98312.61;;;25.65;55.33
33286;BME280;19656;50.096;20.014;2023-07-29T14:38:52;98310.84;;;25.66;54.81
33286;BME280;19656;50.096;20.014;2023-07-29T14:43:55;98332.23;;;25.59;55.71
33286;BME280;19656;50.096;20.014;2023-07-29T14:48:59;98351.14;;;25.29;57.17
33286;BME280;19656;50.096;20.014;2023-07-29T14:54:02;98354.77;;;25.02;58.36
33286;BME280;19656;50.096;20.014;2023-07-29T14:59:06;98355.55;;;24.77;59.56
33286;BME280;19656;50.096;20.014;2023-07-29T15:04:26;98343.95;;;24.58;60.26
33286;BME280;19656;50.096;20.014;2023-07-29T15:09:32;98339.66;;;24.54;60.36
33286;BME280;19656;50.096;20.014;2023-07-29T15:14:43;98344.51;;;24.68;61.00
33286;BME280;19656;50.096;20.014;2023-07-29T15:19:47;98341.80;;;24.82;61.37
33286;BME280;19656;50.096;20.014;2023-07-29T15:25:01;98337.53;;;24.94;61.81
33286;BME280;19656;50.096;20.014;2023-07-29T15:30:10;98337.16;;;24.96;62.33
33286;BME280;19656;50.096;20.014;2023-07-29T15:35:37;98338.69;;;25.00;62.98
33286;BME280;19656;50.096;20.014;2023-07-29T15:40:48;98333.14;;;24.98;62.96
33286;BME280;19656;50.096;20.014;2023-07-29T15:45:57;98330.98;;;25.04;62.26
33286;BME280;19656;50.096;20.014;2023-07-29T15:51:11;98329.69;;;25.05;61.66
33286;BME280;19656;50.096;20.014;2023-07-29T15:56:28;98325.11;;;25.04;60.50
33286;BME280;19656;50.096;20.014;2023-07-29T16:01:36;98318.84;;;25.07;59.96
33286;BME280;19656;50.096;20.014;2023-07-29T16:06:45;98317.84;;;25.07;58.78
33286;BME280;19656;50.096;20.014;2023-07-29T16:11:57;98318.88;;;25.06;58.64
33286;BME280;19656;50.096;20.014;2023-07-29T16:17:15;98319.48;;;24.94;58.15
33286;BME280;19656;50.096;20.014;2023-07-29T16:22:32;98311.02;;;24.84;58.26
33286;BME280;19656;50.096;20.014;2023-07-29T16:27:41;98308.83;;;24.79;58.64
33286;BME280;19656;50.096;20.014;2023-07-29T16:33:01;98310.45;;;24.76;58.82
33286;BME280;19656;50.096;20.014;2023-07-29T16:38:18;98305.58;;;24.71;58.70
33286;BME280;19656;50.096;20.014;2023-07-29T16:43:46;98298.56;;;24.69;59.32
33286;BME280;19656;50.096;20.014;2023-07-29T16:48:57;98297.45;;;24.69;59.22
33286;BME280;19656;50.096;20.014;2023-07-29T16:54:00;98299.58;;;24.65;59.41
33286;BME280;19656;50.096;20.014;2023-07-29T17:02:08;98281.22;;;24.63;59.80
33286;BME280;19656;50.096;20.014;2023-07-29T17:07:11;98275.61;;;24.60;60.09
33286;BME280;19656;50.096;20.014;2023-07-29T17:12:15;98272.17;;;24.61;60.46
33286;BME280;19656;50.096;20.014;2023-07-29T17:23:58;98258.20;;;24.60;60.73
33286;BME280;19656;50.096;20.014;2023-07-29T17:29:03;98255.81;;;24.62;60.66
33286;BME280;19656;50.096;20.014;2023-07-29T17:34:06;98249.11;;;24.58;59.77
33286;BME280;19656;50.096;20.014;2023-07-29T17:39:09;98242.48;;;24.54;59.72
33286;BME280;19656;50.096;20.014;2023-07-29T17:44:12;98241.67;;;24.52;59.72
33286;BME280;19656;50.096;20.014;2023-07-29T17:49:16;98240.70;;;24.50;60.05
33286;BME280;19656;50.096;20.014;2023-07-29T17:54:20;98244.55;;;24.46;60.11
33286;BME280;19656;50.096;20.014;2023-07-29T17:59:35;98245.02;;;24.41;60.44
33286;BME280;19656;50.096;20.014;2023-07-29T18:04:40;98240.73;;;24.38;60.54
33286;BME280;19656;50.096;20.014;2023-07-29T18:09:43;98234.66;;;24.39;60.87
33286;BME280;19656;50.096;20.014;2023-07-29T18:14:48;98225.19;;;24.37;61.03
33286;BME280;19656;50.096;20.014;2023-07-29T18:19:53;98222.46;;;24.37;61.67
33286;BME280;19656;50.096;20.014;2023-07-29T18:24:59;98221.03;;;24.38;61.86
33286;BME280;19656;50.096;20.014;2023-07-29T18:30:03;98231.13;;;24.38;61.38
33286;BME280;19656;50.096;20.014;2023-07-29T18:35:08;98236.28;;;24.39;61.61
33286;BME280;19656;50.096;20.014;2023-07-29T18:40:12;98237.73;;;24.34;61.62
33286;BME280;19656;50.096;20.014;2023-07-29T18:45:15;98253.29;;;24.27;62.30
33286;BME280;19656;50.096;20.014;2023-07-29T18:50:19;98262.39;;;24.29;62.70
33286;BME280;19656;50.096;20.014;2023-07-29T18:55:22;98273.29;;;24.34;62.64
33286;BME280;19656;50.096;20.014;2023-07-29T19:00:25;98281.39;;;24.38;63.38
33286;BME280;19656;50.096;20.014;2023-07-29T19:05:28;98279.41;;;24.37;62.72
33286;BME280;19656;50.096;20.014;2023-07-29T19:10:32;98283.73;;;24.31;62.45
33286;BME280;19656;50.096;20.014;2023-07-29T19:15:35;98282.05;;;24.27;62.54
33286;BME280;19656;50.096;20.014;2023-07-29T19:20:39;98293.48;;;24.23;62.61
33286;BME280;19656;50.096;20.014;2023-07-29T19:25:50;98291.34;;;24.21;62.62
33286;BME280;19656;50.096;20.014;2023-07-29T19:30:53;98282.84;;;24.20;62.49
33286;BME280;19656;50.096;20.014;2023-07-29T19:35:57;98285.77;;;24.25;62.46
33286;BME280;19656;50.096;20.014;2023-07-29T19:41:02;98278.35;;;24.34;62.11
33286;BME280;19656;50.096;20.014;2023-07-29T19:46:05;98276.98;;;24.36;61.83
33286;BME280;19656;50.096;20.014;2023-07-29T19:51:16;98276.25;;;24.35;62.00
33286;BME280;19656;50.096;20.014;2023-07-29T19:56:19;98269.16;;;24.29;62.35
33286;BME280;19656;50.096;20.014;2023-07-29T20:01:22;98266.08;;;24.24;62.63
33286;BME280;19656;50.096;20.014;2023-07-29T20:06:41;98271.48;;;24.11;62.48
33286;BME280;19656;50.096;20.014;2023-07-29T20:11:44;98278.69;;;23.96;62.51
33286;BME280;19656;50.096;20.014;2023-07-29T20:16:48;98277.83;;;23.86;62.82
33286;BME280;19656;50.096;20.014;2023-07-29T20:21:51;98280.34;;;23.78;62.82
33286;BME280;19656;50.096;20.014;2023-07-29T20:26:54;98277.19;;;23.69;63.31
33286;BME280;19656;50.096;20.014;2023-07-29T20:31:57;98279.54;;;23.70;63.89
33286;BME280;19656;50.096;20.014;2023-07-29T20:37:01;98278.52;;;23.77;63.81
33286;BME280;19656;50.096;20.014;2023-07-29T20:42:05;98287.68;;;23.78;63.81
33286;BME280;19656;50.096;20.014;2023-07-29T20:47:08;98288.45;;;23.81;63.86
33286;BME280;19656;50.096;20.014;2023-07-29T20:52:23;98287.59;;;23.68;64.00
33286;BME280;19656;50.096;20.014;2023-07-29T20:57:26;98295.74;;;23.54;64.11
33286;BME280;19656;50.096;20.014;2023-07-29T21:02:29;98299.11;;;23.49;64.04
33286;BME280;19656;50.096;20.014;2023-07-29T21:07:33;98306.59;;;23.37;64.44
33286;BME280;19656;50.096;20.014;2023-07-29T21:12:36;98309.48;;;23.28;64.99
33286;BME280;19656;50.096;20.014;2023-07-29T21:17:46;98312.55;;;23.20;64.93
33286;BME280;19656;50.096;20.014;2023-07-29T21:22:49;98307.02;;;23.17;64.42
33286;BME280;19656;50.096;20.014;2023-07-29T21:27:52;98308.62;;;23.23;63.25
33286;BME280;19656;50.096;20.014;2023-07-29T21:32:56;98311.90;;;23.29;63.05
33286;BME280;19656;50.096;20.014;2023-07-29T21:37:59;98313.46;;;23.30;62.29
33286;BME280;19656;50.096;20.014;2023-07-29T21:43:19;98314.93;;;23.28;62.10
33286;BME280;19656;50.096;20.014;2023-07-29T21:48:22;98323.55;;;23.25;61.73
33286;BME280;19656;50.096;20.014;2023-07-29T21:53:25;98319.77;;;23.23;61.58
33286;BME280;19656;50.096;20.014;2023-07-29T21:58:29;98325.09;;;23.21;61.65
33286;BME280;19656;50.096;20.014;2023-07-29T22:03:32;98321.56;;;23.19;61.73
33286;BME280;19656;50.096;20.014;2023-07-29T22:08:36;98326.75;;;23.15;61.69
33286;BME280;19656;50.096;20.014;2023-07-29T22:13:40;98329.47;;;23.08;61.60
33286;BME280;19656;50.096;20.014;2023-07-29T22:18:43;98327.79;;;23.04;61.49
33286;BME280;19656;50.096;20.014;2023-07-29T22:23:46;98331.73;;;22.97;61.32
33286;BME280;19656;50.096;20.014;2023-07-29T22:29:03;98340.39;;;22.89;61.68
33286;BME280;19656;50.096;20.014;2023-07-29T22:34:06;98346.45;;;22.87;61.55
33286;BME280;19656;50.096;20.014;2023-07-29T22:39:09;98345.16;;;22.83;61.41
33286;BME280;19656;50.096;20.014;2023-07-29T22:44:16;98351.59;;;22.81;61.52
33286;BME280;19656;50.096;20.014;2023-07-29T22:49:28;98350.11;;;22.75;61.82
33286;BME280;19656;50.096;20.014;2023-07-29T22:54:32;98339.16;;;22.75;61.73
33286;BME280;19656;50.096;20.014;2023-07-29T22:59:35;98347.37;;;22.74;61.69
33286;BME280;19656;50.096;20.014;2023-07-29T23:04:38;98350.68;;;22.75;61.61
33286;BME280;19656;50.096;20.014;2023-07-29T23:09:42;98356.52;;;22.75;61.82
33286;BME280;19656;50.096;20.014;2023-07-29T23:16:21;98363.53;;;22.71;61.72
33286;BME280;19656;50.096;20.014;2023-07-29T23:21:27;98364.48;;;22.48;62.14
33286;BME280;19656;50.096;20.014;2023-07-29T23:26:42;98359.33;;;22.31;62.53
33286;BME280;19656;50.096;20.014;2023-07-29T23:31:45;98362.64;;;22.14;63.04
33286;BME280;19656;50.096;20.014;2023-07-29T23:36:48;98359.94;;;21.99;63.39
33286;BME280;19656;50.096;20.014;2023-07-29T23:41:52;98358.15;;;21.89;63.86
33286;BME280;19656;50.096;20.014;2023-07-29T23:46:55;98360.09;;;21.80;64.16
33286;BME280;19656;50.096;20.014;2023-07-29T23:52:03;98356.16;;;21.77;64.43
33286;BME280;19656;50.096;20.014;2023-07-29T23:57:08;98354.73;;;21.78;64.67
